Time;durP1;ratioP1;P1;durP2;ratioP2;P2;SDS_P1;SDS_P2;PMS_P1;PMS_P2;Temp;Humidity;BMP_temperature;BMP_pressure;BME280_temperature;BME280_humidity;BME280_pressure;Samples;Min_cycle;Max_cycle;Signal;HPM_P1;HPM_P2
2023/05/13 00:01:06;;;;;;;8.93;7.03;;;11.30;8.40;;;;;;4958234;28;20554;-65
2023/05/13 00:03:32;;;;;;;10.40;7.28;;;11.30;9.20;;;;;;5008326;28;20130;-64
2023/05/13 00:05:58;;;;;;;8.13;7.20;;;11.30;3.30;;;;;;4976634;28;20121;-64
2023/05/13 00:08:23;;;;;;;10.02;7.28;;;11.20;1.00;;;;;;4971882;28;20644;-66
2023/05/13 00:10:49;;;;;;;10.15;7.10;;;11.30;1.00;;;;;;4974408;28;20737;-64
2023/05/13 00:13:15;;;;;;;10.45;8.15;;;11.20;1.00;;;;;;4971866;28;20050;-64
2023/05/13 00:15:41;;;;;;;8.82;7.97;;;11.20;1.00;;;;;;4958315;28;20057;-65
2023/05/13 00:18:06;;;;;;;12.02;8.23;;;11.10;1.00;;;;;;4958862;28;20495;-64
2023/05/13 00:20:32;;;;;;;10.88;8.40;;;11.10;1.00;;;;;;4958891;28;20524;-64
2023/05/13 00:22:58;;;;;;;11.27;7.90;;;11.10;1.00;;;;;;4977180;28;20041;-64
2023/05/13 00:25:23;;;;;;;9.23;8.27;;;11.10;1.00;;;;;;4979748;28;20072;-65
2023/05/13 00:27:50;;;;;;;15.13;8.82;;;11.00;1.00;;;;;;4981884;28;20042;-64
2023/05/13 00:30:15;;;;;;;9.88;7.85;;;11.00;1.00;;;;;;4961252;28;20501;-65
2023/05/13 00:32:41;;;;;;;12.27;8.23;;;10.90;1.00;;;;;;4974724;28;20053;-64
2023/05/13 00:35:07;;;;;;;11.73;7.68;;;10.90;1.00;;;;;;4948149;28;20353;-64
2023/05/13 00:37:32;;;;;;;13.00;8.48;;;11.00;1.00;;;;;;4961520;28;20810;-64
2023/05/13 00:39:58;;;;;;;10.65;8.50;;;10.90;1.00;;;;;;4980173;28;20298;-64
2023/05/13 00:42:24;;;;;;;14.38;9.18;;;10.80;1.00;;;;;;4962370;28;20681;-66
2023/05/13 00:44:51;;;;;;;14.57;9.35;;;10.80;1.00;;;;;;5010313;28;20404;-64
2023/05/13 00:47:17;;;;;;;11.85;9.52;;;10.70;1.00;;;;;;4963436;28;20137;-64
2023/05/13 00:49:43;;;;;;;11.93;9.05;;;10.70;1.00;;;;;;4962375;28;20304;-64
2023/05/13 00:52:08;;;;;;;11.32;9.20;;;10.70;24.80;;;;;;4979683;28;20052;-65
2023/05/13 00:54:34;;;;;;;14.93;9.00;;;10.70;39.30;;;;;;4978046;28;20635;-64
2023/05/13 00:57:00;;;;;;;12.80;8.68;;;10.80;75.50;;;;;;5012314;28;20037;-65
2023/05/13 00:59:28;;;;;;;11.90;8.00;;;10.90;81.10;;;;;;4977918;28;20469;-64
2023/05/13 01:02:09;;;;;;;14.82;9.02;;;11.00;74.80;;;;;;4963568;28;20047;-65
2023/05/13 01:05:06;;;;;;;9.85;8.65;;;11.10;57.20;;;;;;4974797;28;20774;-64
2023/05/13 01:07:56;;;;;;;13.85;9.02;;;11.10;81.80;;;;;;4957546;28;20073;-64
2023/05/13 01:10:40;;;;;;;11.75;8.50;;;11.10;64.30;;;;;;4966712;28;20548;-65
2023/05/13 01:13:12;;;;;;;11.40;8.98;;;11.10;76.80;;;;;;5013462;28;20292;-64
2023/05/13 01:15:48;;;;;;;14.02;9.13;;;11.10;64.50;;;;;;4976880;28;20072;-64
2023/05/13 01:18:39;;;;;;;12.05;8.80;;;11.10;69.50;;;;;;4976702;28;20042;-65
2023/05/13 01:21:07;;;;;;;15.35;8.02;;;11.20;99.90;;;;;;4976466;28;20042;-65
2023/05/13 01:23:33;;;;;;;8.45;7.65;;;11.10;76.60;;;;;;4972929;28;20239;-65
2023/05/13 01:25:58;;;;;;;9.82;8.93;;;11.10;67.50;;;;;;4961646;28;20058;-65
2023/05/13 01:28:24;;;;;;;10.57;9.27;;;11.10;44.00;;;;;;4972910;28;21668;-65
2023/05/13 01:30:50;;;;;;;12.98;8.82;;;11.00;33.10;;;;;;4979274;28;20042;-65
2023/05/13 01:33:16;;;;;;;14.95;9.60;;;11.00;39.00;;;;;;4977068;28;20129;-65
2023/05/13 01:35:44;;;;;;;13.30;9.43;;;11.00;52.80;;;;;;4974032;28;20140;-64
2023/05/13 01:38:11;;;;;;;17.60;9.90;;;11.00;72.70;;;;;;4992897;28;20402;-65
2023/05/13 01:40:37;;;;;;;12.27;9.32;;;11.00;74.30;;;;;;5007874;28;20121;-65
2023/05/13 01:43:03;;;;;;;15.70;9.32;;;11.10;99.90;;;;;;4962424;28;20044;-65
2023/05/13 01:45:29;;;;;;;12.23;8.27;;;11.10;96.10;;;;;;4975451;28;20042;-65
2023/05/13 01:47:55;;;;;;;16.23;9.35;;;11.10;95.40;;;;;;4979971;28;20304;-64
2023/05/13 01:50:20;;;;;;;13.02;8.68;;;11.10;90.80;;;;;;4974945;28;20046;-65
2023/05/13 01:52:46;;;;;;;12.88;8.52;;;11.20;89.40;;;;;;4964572;28;20041;-64
2023/05/13 01:55:13;;;;;;;12.43;8.80;;;11.20;92.80;;;;;;4991300;28;20069;-64
2023/05/13 01:57:38;;;;;;;13.60;8.60;;;11.20;74.00;;;;;;4978423;28;20086;-64
2023/05/13 02:00:05;;;;;;;10.10;8.65;;;11.30;55.10;;;;;;4977287;28;20138;-64
2023/05/13 02:02:31;;;;;;;11.88;8.80;;;11.20;41.10;;;;;;4961509;28;20339;-64
2023/05/13 02:04:56;;;;;;;10.93;8.10;;;11.20;27.10;;;;;;4972916;28;20294;-65
2023/05/13 02:07:22;;;;;;;11.07;9.13;;;11.20;17.20;;;;;;4973648;28;20046;-64
2023/05/13 02:09:47;;;;;;;13.43;8.80;;;11.20;10.70;;;;;;4973160;28;20041;-64
2023/05/13 02:12:13;;;;;;;12.40;9.38;;;11.20;4.50;;;;;;4973289;28;20117;-64
2023/05/13 02:14:39;;;;;;;13.77;10.50;;;11.20;6.60;;;;;;4976782;28;20520;-64
2023/05/13 02:17:04;;;;;;;13.23;10.30;;;11.20;28.80;;;;;;4973792;28;20507;-64
2023/05/13 02:19:30;;;;;;;13.65;10.73;;;11.10;22.40;;;;;;4979088;28;20355;-64
2023/05/13 02:21:56;;;;;;;13.68;10.65;;;11.00;17.90;;;;;;4958659;28;20042;-64
2023/05/13 02:24:22;;;;;;;15.38;11.70;;;11.00;44.60;;;;;;4975010;28;20191;-64
2023/05/13 02:26:47;;;;;;;14.95;11.00;;;11.00;47.40;;;;;;5003607;28;20109;-64
2023/05/13 02:29:13;;;;;;;13.50;10.88;;;10.90;57.30;;;;;;4977370;28;20138;-64
2023/05/13 02:31:41;;;;;;;15.93;10.85;;;10.90;74.60;;;;;;4962951;28;20076;-65
2023/05/13 02:34:07;;;;;;;14.48;10.52;;;10.90;79.20;;;;;;4976487;28;20317;-65
2023/05/13 02:36:33;;;;;;;15.48;12.50;;;10.90;97.00;;;;;;4959939;28;20054;-64
2023/05/13 02:38:59;;;;;;;15.55;12.45;;;10.90;99.90;;;;;;4976773;28;20385;-64
2023/05/13 02:41:24;;;;;;;16.23;12.48;;;10.90;99.90;;;;;;4961163;28;20048;-64
2023/05/13 02:43:50;;;;;;;20.63;13.32;;;10.90;99.90;;;;;;4961662;28;20906;-64
2023/05/13 02:46:16;;;;;;;17.15;12.38;;;11.00;99.90;;;;;;4974380;28;20056;-64
2023/05/13 02:48:41;;;;;;;17.48;12.05;;;11.00;99.90;;;;;;4973696;28;20046;-64
2023/05/13 02:51:08;;;;;;;14.38;12.13;;;11.00;99.90;;;;;;5003258;28;20034;-64
2023/05/13 02:53:34;;;;;;;14.18;11.57;;;11.00;99.90;;;;;;5006184;28;20233;-64
2023/05/13 02:55:59;;;;;;;14.10;11.13;;;11.00;99.90;;;;;;5007423;28;20540;-65
2023/05/13 02:58:25;;;;;;;15.02;10.88;;;11.10;99.90;;;;;;4986979;28;20081;-64
2023/05/13 03:00:51;;;;;;;13.82;10.50;;;11.10;99.90;;;;;;5011005;28;20545;-64
2023/05/13 03:03:16;;;;;;;14.75;10.25;;;11.20;99.90;;;;;;4990978;28;20042;-64
2023/05/13 03:05:42;;;;;;;12.10;10.25;;;11.20;99.90;;;;;;4961426;28;20041;-64
2023/05/13 03:08:08;;;;;;;13.00;10.50;;;11.20;99.90;;;;;;4974555;28;20125;-64
2023/05/13 03:10:33;;;;;;;15.35;10.80;;;11.30;99.90;;;;;;4975614;28;20077;-64
2023/05/13 03:12:59;;;;;;;12.52;10.38;;;11.30;99.90;;;;;;4958500;28;20042;-64
2023/05/13 03:15:25;;;;;;;15.65;11.63;;;11.30;99.90;;;;;;4975989;28;20052;-64
2023/05/13 03:17:51;;;;;;;15.80;11.23;;;11.30;99.90;;;;;;4959464;28;20045;-64
2023/05/13 03:20:17;;;;;;;15.75;11.60;;;11.30;99.90;;;;;;4959793;28;20046;-65
2023/05/13 03:22:43;;;;;;;14.00;10.93;;;11.30;99.90;;;;;;4974831;28;20092;-64
2023/05/13 03:25:09;;;;;;;16.10;10.70;;;11.40;99.90;;;;;;4957622;28;20121;-65
2023/05/13 03:27:35;;;;;;;12.25;9.77;;;11.40;99.90;;;;;;4957872;28;20050;-64
2023/05/13 03:30:00;;;;;;;16.77;10.80;;;11.50;99.90;;;;;;4970990;28;20451;-64
2023/05/13 03:32:29;;;;;;;11.80;9.77;;;11.50;99.90;;;;;;4974769;28;20410;-64
2023/05/13 03:34:56;;;;;;;10.65;9.13;;;11.50;99.90;;;;;;4976110;28;20350;-65
2023/05/13 03:37:23;;;;;;;12.77;9.57;;;11.50;99.90;;;;;;4990790;28;20761;-64
2023/05/13 03:39:49;;;;;;;10.77;9.48;;;11.50;99.90;;;;;;4974078;28;20050;-64
2023/05/13 03:42:15;;;;;;;14.30;9.40;;;11.50;99.90;;;;;;4973170;28;20200;-65
2023/05/13 03:44:40;;;;;;;16.13;10.07;;;11.60;99.90;;;;;;4975858;28;20624;-65
2023/05/13 03:47:06;;;;;;;12.10;9.55;;;11.60;99.90;;;;;;4942377;28;20171;-65
2023/05/13 03:49:32;;;;;;;15.02;9.52;;;11.60;99.90;;;;;;5005149;28;20485;-64
2023/05/13 03:51:57;;;;;;;13.52;9.23;;;11.50;99.90;;;;;;4978360;28;20330;-64
2023/05/13 03:54:23;;;;;;;15.00;9.80;;;11.50;99.90;;;;;;4974299;28;20037;-63
2023/05/13 03:56:48;;;;;;;15.45;9.55;;;11.60;99.90;;;;;;4958834;28;20669;-63
2023/05/13 03:59:14;;;;;;;13.07;9.98;;;11.60;99.90;;;;;;4947303;28;20352;-63
2023/05/13 04:01:40;;;;;;;17.02;10.77;;;11.60;99.90;;;;;;4977703;28;20413;-63
2023/05/13 04:04:05;;;;;;;11.63;9.65;;;11.60;99.90;;;;;;4977636;28;20310;-65
2023/05/13 04:06:31;;;;;;;11.98;9.05;;;11.60;99.90;;;;;;4974575;28;20042;-64
2023/05/13 04:08:57;;;;;;;15.25;10.25;;;11.60;99.90;;;;;;4977217;28;20042;-63
2023/05/13 04:11:22;;;;;;;13.88;10.20;;;11.60;99.90;;;;;;4991838;28;20310;-64
2023/05/13 04:13:48;;;;;;;14.25;10.18;;;11.60;99.90;;;;;;4958137;28;20212;-64
2023/05/13 04:16:14;;;;;;;13.43;10.10;;;11.60;99.90;;;;;;4993074;28;20050;-64
2023/05/13 04:18:39;;;;;;;15.00;9.73;;;11.60;99.90;;;;;;4980794;28;20038;-64
2023/05/13 04:21:06;;;;;;;17.52;10.02;;;11.70;99.90;;;;;;4961142;28;20042;-64
2023/05/13 04:23:32;;;;;;;17.67;9.77;;;11.60;99.90;;;;;;4978621;28;20073;-65
2023/05/13 04:25:58;;;;;;;14.60;10.40;;;11.60;99.90;;;;;;4977967;28;20050;-64
2023/05/13 04:28:23;;;;;;;14.88;10.85;;;11.60;99.90;;;;;;4979226;28;20038;-64
2023/05/13 04:30:49;;;;;;;16.20;10.00;;;11.70;99.90;;;;;;4960539;28;20436;-64
2023/05/13 04:33:15;;;;;;;14.88;10.13;;;11.70;99.90;;;;;;4977443;28;20054;-64
2023/05/13 04:35:41;;;;;;;13.95;9.90;;;11.70;99.90;;;;;;4979870;28;20034;-64
2023/05/13 04:38:08;;;;;;;13.95;9.85;;;11.70;99.90;;;;;;4976488;28;20045;-64
2023/05/13 04:40:33;;;;;;;13.65;10.18;;;11.70;99.90;;;;;;4991866;28;20278;-65
2023/05/13 04:42:59;;;;;;;14.57;9.75;;;11.80;99.90;;;;;;4962784;28;20046;-64
2023/05/13 04:45:25;;;;;;;13.27;9.50;;;11.80;99.90;;;;;;4978036;28;20049;-64
2023/05/13 04:47:50;;;;;;;13.57;9.93;;;11.70;99.90;;;;;;4962458;28;20359;-64
2023/05/13 04:50:16;;;;;;;12.82;9.45;;;11.70;99.90;;;;;;4973732;28;20061;-65
2023/05/13 04:52:43;;;;;;;13.18;9.50;;;11.80;99.90;;;;;;4974076;28;20030;-65
2023/05/13 04:55:09;;;;;;;13.18;8.05;;;11.80;99.90;;;;;;4942872;28;20183;-65
2023/05/13 04:57:35;;;;;;;12.95;9.15;;;11.80;99.90;;;;;;4975232;28;20132;-64
2023/05/13 05:00:03;;;;;;;11.32;8.23;;;11.90;95.80;;;;;;4965398;28;20269;-65
2023/05/13 05:02:28;;;;;;;11.73;8.68;;;11.90;77.30;;;;;;4961042;28;20038;-64
2023/05/13 05:04:55;;;;;;;14.82;8.38;;;11.90;48.00;;;;;;4974919;28;20046;-65
2023/05/13 05:07:21;;;;;;;11.88;8.52;;;12.00;12.90;;;;;;4955678;28;20046;-64
2023/05/13 05:09:47;;;;;;;13.45;8.35;;;12.00;1.00;;;;;;4958690;28;20049;-64
2023/05/13 05:12:13;;;;;;;12.35;8.10;;;12.00;1.00;;;;;;4956309;28;20132;-64
2023/05/13 05:14:39;;;;;;;13.70;8.90;;;12.10;1.00;;;;;;4974264;28;20317;-64
2023/05/13 05:17:04;;;;;;;11.15;8.63;;;12.00;1.00;;;;;;4972255;28;20046;-64
2023/05/13 05:19:30;;;;;;;14.13;8.82;;;12.00;1.00;;;;;;4974085;28;20616;-64
2023/05/13 05:21:56;;;;;;;11.10;8.52;;;12.00;1.00;;;;;;4976335;28;20149;-64
2023/05/13 05:24:21;;;;;;;11.65;8.82;;;12.00;1.00;;;;;;4975555;28;20104;-64
2023/05/13 05:26:48;;;;;;;10.18;8.75;;;12.00;1.00;;;;;;4958994;28;20050;-64
2023/05/13 05:29:14;;;;;;;9.90;8.10;;;12.10;1.00;;;;;;4994530;28;20073;-64
2023/05/13 05:31:40;;;;;;;13.02;8.10;;;12.40;18.90;;;;;;4975145;28;20049;-64
2023/05/13 05:34:06;;;;;;;12.63;7.60;;;12.70;1.00;;;;;;4976133;28;20085;-64
2023/05/13 05:36:32;;;;;;;12.20;6.60;;;13.10;1.00;;;;;;4976161;28;20073;-64
2023/05/13 05:38:57;;;;;;;9.77;7.10;;;13.30;1.00;;;;;;4974908;28;20050;-63
2023/05/13 05:41:23;;;;;;;13.23;7.00;;;13.60;1.00;;;;;;4957722;28;20042;-63
2023/05/13 05:43:49;;;;;;;9.70;7.20;;;13.70;1.00;;;;;;4993600;28;20096;-64
2023/05/13 05:46:15;;;;;;;7.93;6.50;;;13.90;99.90;;;;;;4962020;28;20470;-64
2023/05/13 05:48:41;;;;;;;9.00;6.00;;;14.00;99.90;;;;;;4966731;28;20125;-64
2023/05/13 05:51:07;;;;;;;7.57;5.90;;;14.10;99.90;;;;;;4971655;28;20045;-64
2023/05/13 05:53:34;;;;;;;10.00;5.72;;;14.30;99.90;;;;;;4946208;28;20599;-65
2023/05/13 05:56:00;;;;;;;9.80;5.38;;;14.40;99.90;;;;;;4961762;28;20042;-64
2023/05/13 05:58:26;;;;;;;11.38;5.90;;;14.50;99.90;;;;;;4938780;28;20121;-66
2023/05/13 06:00:53;;;;;;;8.18;5.70;;;14.70;99.90;;;;;;4958470;28;20034;-64
2023/05/13 06:03:19;;;;;;;8.63;5.57;;;14.90;99.90;;;;;;4957976;28;20038;-64
2023/05/13 06:05:45;;;;;;;7.10;5.45;;;15.00;99.90;;;;;;4972147;28;20042;-64
2023/05/13 06:08:11;;;;;;;13.05;6.07;;;15.10;99.90;;;;;;4976560;28;20437;-64
2023/05/13 06:10:37;;;;;;;7.90;5.47;;;15.00;99.90;;;;;;4974883;28;20038;-64
2023/05/13 06:13:03;;;;;;;10.57;5.63;;;15.20;99.90;;;;;;4977248;28;20038;-65
2023/05/13 06:15:29;;;;;;;8.05;5.00;;;15.30;99.90;;;;;;4973393;28;20074;-65
2023/05/13 06:17:56;;;;;;;9.73;5.70;;;15.40;99.90;;;;;;4972743;28;20046;-65
2023/05/13 06:20:22;;;;;;;7.50;5.65;;;15.60;99.90;;;;;;4956247;28;20050;-65
2023/05/13 06:22:48;;;;;;;6.90;4.93;;;15.70;99.90;;;;;;4956159;28;20141;-64
2023/05/13 06:25:14;;;;;;;10.90;5.30;;;15.70;99.90;;;;;;4975508;28;20610;-64
2023/05/13 06:27:40;;;;;;;10.40;4.70;;;15.80;99.90;;;;;;4956513;28;20054;-65
2023/05/13 06:30:06;;;;;;;9.32;4.90;;;15.90;99.90;;;;;;4956013;28;20057;-65
2023/05/13 06:32:32;;;;;;;9.75;4.70;;;16.00;99.90;;;;;;4955866;28;20148;-66
2023/05/13 06:34:58;;;;;;;7.53;4.93;;;16.00;99.90;;;;;;4956156;28;20857;-65
2023/05/13 06:37:23;;;;;;;11.15;4.88;;;16.00;99.90;;;;;;4956338;28;21217;-64
2023/05/13 06:39:49;;;;;;;7.05;5.10;;;16.10;99.90;;;;;;4956022;28;20049;-65
2023/05/13 06:42:15;;;;;;;6.55;4.50;;;16.30;99.90;;;;;;4956947;28;20338;-64
2023/05/13 06:44:40;;;;;;;9.57;4.63;;;16.50;99.90;;;;;;4972334;28;20046;-65
2023/05/13 06:47:09;;;;;;;6.93;4.75;;;16.50;99.90;;;;;;4956075;28;20062;-64
2023/05/13 06:49:34;;;;;;;7.32;4.90;;;16.70;99.90;;;;;;4971876;28;20325;-65
2023/05/13 06:52:00;;;;;;;7.75;4.60;;;16.80;99.90;;;;;;4972678;28;20518;-64
2023/05/13 06:54:26;;;;;;;9.43;4.47;;;16.90;99.90;;;;;;4957189;28;20044;-65
2023/05/13 06:56:52;;;;;;;8.13;4.50;;;17.00;99.90;;;;;;4973292;28;20328;-65
2023/05/13 06:59:20;;;;;;;4.65;4.03;;;17.10;99.90;;;;;;4981450;28;20034;-65
2023/05/13 07:01:46;;;;;;;6.97;4.53;;;17.20;99.90;;;;;;4958736;28;20034;-64
2023/05/13 07:04:12;;;;;;;6.68;4.05;;;17.30;99.90;;;;;;4962562;28;20076;-65
2023/05/13 07:06:37;;;;;;;12.50;4.47;;;17.50;99.90;;;;;;4973402;28;20065;-65
2023/05/13 07:09:03;;;;;;;5.90;4.07;;;17.40;99.90;;;;;;4963706;28;20184;-65
2023/05/13 07:11:29;;;;;;;7.72;4.18;;;17.50;99.90;;;;;;4961103;28;20538;-64
2023/05/13 07:13:55;;;;;;;6.95;4.40;;;17.70;99.90;;;;;;4973547;28;20054;-64
2023/05/13 07:16:20;;;;;;;5.53;3.97;;;17.70;99.90;;;;;;4964586;28;20061;-65
2023/05/13 07:18:46;;;;;;;6.03;4.10;;;17.90;99.90;;;;;;4959260;28;20332;-64
2023/05/13 07:21:14;;;;;;;6.25;4.25;;;17.80;99.90;;;;;;4973864;28;20049;-64
2023/05/13 07:23:39;;;;;;;6.68;3.88;;;18.00;99.90;;;;;;4962710;28;20034;-65
2023/05/13 07:26:05;;;;;;;5.43;4.00;;;18.10;99.90;;;;;;5010481;28;20054;-65
2023/05/13 07:28:31;;;;;;;5.47;3.60;;;18.30;99.90;;;;;;4971381;28;20057;-65
2023/05/13 07:30:57;;;;;;;5.30;3.75;;;18.40;99.90;;;;;;4975196;28;20038;-65
2023/05/13 07:33:23;;;;;;;7.57;4.10;;;18.50;46.20;;;;;;4973480;28;20053;-64
2023/05/13 07:35:49;;;;;;;5.18;3.95;;;18.50;16.20;;;;;;4977763;28;20401;-65
2023/05/13 07:38:15;;;;;;;8.85;4.03;;;18.60;9.60;;;;;;4955690;28;20034;-65
2023/05/13 07:40:40;;;;;;;6.03;3.53;;;18.60;1.00;;;;;;4956834;28;20062;-65
2023/05/13 07:43:07;;;;;;;6.43;3.80;;;18.70;1.00;;;;;;4976819;28;20151;-65
2023/05/13 07:45:33;;;;;;;6.20;3.78;;;18.60;1.00;;;;;;4977128;28;20508;-65
2023/05/13 07:47:59;;;;;;;5.50;3.97;;;18.70;15.90;;;;;;4972988;28;20073;-65
2023/05/13 07:50:25;;;;;;;8.38;4.50;;;18.70;36.60;;;;;;4972723;28;20050;-66
2023/05/13 07:52:50;;;;;;;6.45;3.90;;;19.00;33.20;;;;;;4954688;28;20050;-65
2023/05/13 07:55:17;;;;;;;7.28;3.72;;;19.10;1.00;;;;;;4938811;28;20108;-65
2023/05/13 07:57:43;;;;;;;6.70;4.05;;;19.30;1.00;;;;;;4955314;28;20046;-65
2023/05/13 08:00:09;;;;;;;5.45;3.80;;;19.50;1.00;;;;;;4954591;28;20070;-65
2023/05/13 08:02:37;;;;;;;6.60;3.95;;;19.60;1.00;;;;;;4955126;28;20216;-66
2023/05/13 08:05:04;;;;;;;7.35;4.10;;;19.50;1.00;;;;;;4970792;28;20081;-65
2023/05/13 08:07:30;;;;;;;5.03;3.50;;;19.50;1.00;;;;;;4955599;28;20195;-65
2023/05/13 08:09:55;;;;;;;8.68;4.10;;;19.80;1.00;;;;;;4939175;28;20054;-65
2023/05/13 08:12:21;;;;;;;5.85;3.80;;;19.80;1.00;;;;;;4971914;28;20653;-66
2023/05/13 08:14:47;;;;;;;7.72;3.65;;;20.10;1.00;;;;;;4938551;28;20050;-65
2023/05/13 08:17:12;;;;;;;6.53;3.78;;;20.00;1.00;;;;;;4955087;28;20176;-65
2023/05/13 08:19:39;;;;;;;6.95;3.70;;;20.20;99.90;;;;;;4971091;28;20057;-65
2023/05/13 08:22:04;;;;;;;5.63;3.80;;;20.10;99.90;;;;;;4954770;28;20097;-65
2023/05/13 08:24:30;;;;;;;8.52;3.80;;;20.30;1.00;;;;;;4954752;28;20038;-65
2023/05/13 08:26:56;;;;;;;5.32;3.80;;;20.30;99.90;;;;;;4970787;28;20062;-66
2023/05/13 08:29:22;;;;;;;5.82;3.55;;;20.60;99.90;;;;;;4970929;28;20042;-65
2023/05/13 08:31:47;;;;;;;7.10;4.00;;;20.70;99.90;;;;;;4954837;28;20142;-66
2023/05/13 08:34:13;;;;;;;6.00;3.42;;;20.80;99.90;;;;;;4938154;28;20038;-66
2023/05/13 08:36:39;;;;;;;5.50;3.40;;;20.90;99.90;;;;;;4955273;28;20047;-65
2023/05/13 08:39:06;;;;;;;4.75;3.30;;;20.90;99.90;;;;;;4938237;28;20077;-66
2023/05/13 08:41:33;;;;;;;5.72;2.90;;;20.80;99.90;;;;;;4971276;28;20046;-65
2023/05/13 08:44:01;;;;;;;4.15;3.22;;;21.20;99.90;;;;;;4953944;28;20046;-66
2023/05/13 08:46:28;;;;;;;6.60;3.72;;;21.50;99.90;;;;;;4957216;28;20042;-66
2023/05/13 08:48:54;;;;;;;4.93;3.45;;;21.30;99.90;;;;;;4942132;28;20703;-67
2023/05/13 08:51:20;;;;;;;5.75;3.47;;;21.60;99.90;;;;;;4957708;28;20104;-66
2023/05/13 08:53:47;;;;;;;6.40;3.40;;;21.70;99.90;;;;;;4957986;28;20046;-65
2023/05/13 08:56:13;;;;;;;4.65;2.97;;;21.80;99.90;;;;;;4957919;28;20121;-65
2023/05/13 08:58:38;;;;;;;3.90;3.15;;;22.00;99.90;;;;;;4941596;28;20050;-64
2023/05/13 09:01:06;;;;;;;5.93;3.35;;;22.10;99.90;;;;;;4973473;28;20046;-66
2023/05/13 09:03:32;;;;;;;4.57;2.78;;;22.20;99.90;;;;;;4973729;28;20546;-66
2023/05/13 09:06:01;;;;;;;5.25;3.10;;;22.30;99.90;;;;;;4957471;28;20225;-66
2023/05/13 09:08:27;;;;;;;6.97;3.55;;;22.40;99.90;;;;;;4957571;28;20088;-66
2023/05/13 09:10:53;;;;;;;6.10;3.72;;;22.70;99.90;;;;;;4973602;28;20050;-66
2023/05/13 09:13:20;;;;;;;4.90;3.20;;;22.70;99.90;;;;;;4973264;28;20042;-65
2023/05/13 09:15:46;;;;;;;7.65;3.60;;;22.80;99.90;;;;;;4993538;28;20042;-66
2023/05/13 09:18:14;;;;;;;4.03;3.10;;;22.90;99.90;;;;;;4986506;28;20129;-64
2023/05/13 09:20:40;;;;;;;5.22;2.90;;;23.00;99.90;;;;;;4970643;28;20043;-65
2023/05/13 09:23:09;;;;;;;7.15;3.70;;;23.00;99.90;;;;;;4986236;28;20046;-66
2023/05/13 09:25:36;;;;;;;7.65;3.90;;;23.10;99.90;;;;;;4986470;28;20042;-64
2023/05/13 09:28:04;;;;;;;6.20;3.30;;;22.80;99.90;;;;;;4985677;28;20065;-64
2023/05/13 09:30:35;;;;;;;5.10;3.90;;;22.70;99.90;;;;;;4985317;28;20112;-65
2023/05/13 09:33:15;;;;;;;7.35;4.13;;;22.80;99.90;;;;;;4985553;28;20050;-64
2023/05/13 09:35:48;;;;;;;6.30;3.78;;;22.60;99.90;;;;;;4985751;28;20081;-64
2023/05/13 09:38:18;;;;;;;9.38;3.45;;;22.40;99.90;;;;;;4984935;28;20046;-65
2023/05/13 09:40:55;;;;;;;5.00;3.17;;;22.10;99.90;;;;;;4985107;28;20104;-64
2023/05/13 09:43:41;;;;;;;4.57;2.10;;;22.10;99.90;;;;;;4985724;28;20137;-67
2023/05/13 09:46:08;;;;;;;4.18;1.85;;;22.70;99.90;;;;;;4984822;28;20130;-65
2023/05/13 09:48:34;;;;;;;4.28;2.00;;;23.10;99.90;;;;;;4969938;28;20042;-64
2023/05/13 09:51:00;;;;;;;4.65;2.10;;;23.50;99.90;;;;;;4969786;28;20042;-64
2023/05/13 09:53:27;;;;;;;4.63;2.80;;;23.60;97.20;;;;;;4970333;28;20409;-64
2023/05/13 09:55:56;;;;;;;5.95;2.20;;;23.30;99.90;;;;;;4985897;28;20145;-64
2023/05/13 09:58:23;;;;;;;5.43;1.52;;;23.90;99.90;;;;;;4986617;28;20045;-64
2023/05/13 10:00:50;;;;;;;2.70;1.33;;;24.30;38.80;;;;;;4987852;28;20148;-67
2023/05/13 10:03:16;;;;;;;6.18;2.10;;;24.60;1.00;;;;;;4970102;28;20168;-63
2023/05/13 10:05:42;;;;;;;6.20;3.30;;;24.50;1.00;;;;;;4986462;28;20034;-65
2023/05/13 10:08:10;;;;;;;7.43;3.33;;;23.80;99.90;;;;;;4986417;28;20445;-64
2023/05/13 10:10:37;;;;;;;7.18;3.42;;;23.80;99.90;;;;;;4985196;28;20042;-65
2023/05/13 10:13:05;;;;;;;8.38;4.78;;;23.10;99.90;;;;;;4985727;28;20235;-65
2023/05/13 10:15:32;;;;;;;6.03;2.63;;;22.20;99.90;;;;;;4985098;28;20046;-65
2023/05/13 10:17:58;;;;;;;7.88;4.55;;;22.40;99.90;;;;;;4969849;28;20045;-64
2023/05/13 10:20:27;;;;;;;5.40;3.05;;;22.70;99.90;;;;;;4969300;28;20146;-67
2023/05/13 10:22:57;;;;;;;5.43;2.28;;;23.20;99.90;;;;;;4969419;28;20056;-65
2023/05/13 10:25:23;;;;;;;6.25;2.25;;;23.70;99.90;;;;;;4986864;28;20046;-65
2023/05/13 10:27:51;;;;;;;4.70;2.85;;;24.10;99.90;;;;;;4968656;28;20058;-64
2023/05/13 10:30:18;;;;;;;5.97;2.85;;;24.10;99.90;;;;;;4984601;28;20100;-64
2023/05/13 10:32:44;;;;;;;6.78;3.13;;;24.30;99.90;;;;;;4969049;28;20050;-65
2023/05/13 10:35:16;;;;;;;3.60;2.08;;;24.60;99.90;;;;;;4984743;28;20057;-65
2023/05/13 10:38:00;;;;;;;7.72;2.92;;;24.60;81.10;;;;;;4984720;28;20125;-65
2023/05/13 10:40:45;;;;;;;6.03;2.85;;;24.90;99.90;;;;;;4967800;28;20042;-66
2023/05/13 10:43:17;;;;;;;9.48;3.30;;;25.00;99.90;;;;;;4983974;28;20085;-64
2023/05/13 10:45:48;;;;;;;8.63;2.90;;;25.20;99.90;;;;;;4983334;28;20038;-64
2023/05/13 10:48:15;;;;;;;6.38;2.40;;;25.30;99.90;;;;;;4983409;28;20116;-64
2023/05/13 10:51:01;;;;;;;4.50;2.17;;;25.20;99.90;;;;;;4983296;28;20045;-65
2023/05/13 10:53:30;;;;;;;5.28;2.28;;;25.20;90.30;;;;;;4984505;28;20629;-64
2023/05/13 10:55:58;;;;;;;5.40;2.60;;;25.20;34.20;;;;;;4983263;28;20108;-65
2023/05/13 10:58:55;;;;;;;7.68;2.20;;;25.20;62.20;;;;;;4983430;28;20512;-65
2023/05/13 11:01:42;;;;;;;5.63;2.30;;;25.40;7.90;;;;;;4966945;28;20035;-64
2023/05/13 11:04:13;;;;;;;3.78;1.92;;;25.00;1.00;;;;;;4984005;28;20046;-64
2023/05/13 11:06:40;;;;;;;3.10;1.60;;;25.20;10.80;;;;;;4984587;28;20048;-65
2023/05/13 11:09:27;;;;;;;3.60;1.50;;;25.30;1.00;;;;;;4982623;28;20104;-64
2023/05/13 11:11:54;;;;;;;4.22;1.65;;;25.20;1.00;;;;;;4984494;28;20610;-64
2023/05/13 11:14:22;;;;;;;5.18;1.58;;;25.20;1.00;;;;;;4967609;28;20055;-64
2023/05/13 11:17:03;;;;;;;7.03;1.90;;;25.40;1.00;;;;;;4984454;28;20447;-64
2023/05/13 11:19:36;;;;;;;5.90;1.45;;;25.50;1.00;;;;;;4983585;28;20076;-65
2023/05/13 11:22:19;;;;;;;7.35;1.75;;;25.40;1.00;;;;;;4974629;28;20125;-65
2023/05/13 11:25:07;;;;;;;5.53;0.90;;;25.20;1.00;;;;;;4984109;28;20042;-64
2023/05/13 11:27:41;;;;;;;3.05;1.13;;;25.60;99.90;;;;;;5010710;28;20054;-65
2023/05/13 11:30:24;;;;;;;6.35;4.45;;;25.60;99.90;;;;;;4985235;28;20243;-66
2023/05/13 11:32:50;;;;;;;6.32;3.85;;;25.40;99.90;;;;;;4998301;28;20065;-65
2023/05/13 11:35:27;;;;;;;7.05;3.33;;;25.00;99.90;;;;;;4981175;28;20050;-65
2023/05/13 11:37:54;;;;;;;7.22;4.70;;;24.70;99.90;;;;;;4968537;28;20054;-65
2023/05/13 11:40:25;;;;;;;6.97;4.38;;;24.60;99.90;;;;;;4985865;28;20780;-66
2023/05/13 11:42:52;;;;;;;8.93;4.60;;;24.70;99.90;;;;;;4984053;28;20124;-65
2023/05/13 11:45:19;;;;;;;7.13;4.03;;;24.60;99.90;;;;;;4984687;28;20108;-66
2023/05/13 11:47:45;;;;;;;7.57;4.65;;;24.50;99.90;;;;;;4984469;28;20053;-67
2023/05/13 11:50:21;;;;;;;5.25;4.32;;;24.70;99.90;;;;;;4967833;28;20456;-65
2023/05/13 11:52:55;;;;;;;8.52;4.80;;;24.40;99.90;;;;;;4985013;28;20046;-64
2023/05/13 11:55:25;;;;;;;7.75;5.63;;;24.40;99.90;;;;;;4984606;28;20493;-65
2023/05/13 11:57:50;;;;;;;8.63;4.95;;;24.50;99.90;;;;;;4995111;28;20457;-65
2023/05/13 12:00:16;;;;;;;6.65;4.80;;;24.50;99.90;;;;;;4970217;28;20178;-65
2023/05/13 12:02:44;;;;;;;6.63;4.38;;;24.70;99.90;;;;;;4990574;28;20128;-65
2023/05/13 12:05:10;;;;;;;7.03;5.43;;;24.50;99.90;;;;;;5000831;28;20046;-65
2023/05/13 12:07:38;;;;;;;7.32;5.18;;;24.50;99.90;;;;;;4990341;28;20481;-65
2023/05/13 12:10:05;;;;;;;6.15;4.78;;;24.60;99.90;;;;;;4999249;28;20057;-65
2023/05/13 12:12:33;;;;;;;6.70;4.13;;;24.60;99.90;;;;;;4963934;28;20567;-65
2023/05/13 12:15:02;;;;;;;5.93;5.13;;;24.70;99.90;;;;;;4985539;28;20046;-66
2023/05/13 12:17:30;;;;;;;9.20;5.45;;;24.40;99.90;;;;;;4986592;28;20126;-65
2023/05/13 12:20:12;;;;;;;7.03;5.60;;;24.10;99.90;;;;;;4987468;28;20054;-65
2023/05/13 12:22:43;;;;;;;5.53;4.35;;;24.10;99.90;;;;;;4990516;28;20471;-64
2023/05/13 12:25:50;;;;;;;5.68;3.70;;;24.30;99.90;;;;;;4982882;28;20050;-65
2023/05/13 12:28:18;;;;;;;4.97;3.00;;;24.30;99.90;;;;;;4926656;29;20058;-65
2023/05/13 12:30:54;;;;;;;5.15;3.50;;;24.60;99.90;;;;;;4909689;29;20043;-65
2023/05/13 12:33:23;;;;;;;5.32;2.72;;;24.70;99.90;;;;;;4982466;28;20061;-64
2023/05/13 12:35:51;;;;;;;6.25;3.67;;;24.70;99.90;;;;;;4967827;28;20046;-65
2023/05/13 12:38:19;;;;;;;6.25;3.75;;;24.90;99.90;;;;;;4969641;28;20086;-65
2023/05/13 12:40:46;;;;;;;9.63;3.70;;;24.70;99.90;;;;;;4985764;28;20043;-65
2023/05/13 12:43:13;;;;;;;4.78;3.38;;;24.70;99.90;;;;;;4953317;28;20048;-65
2023/05/13 12:45:41;;;;;;;8.20;3.90;;;24.80;99.90;;;;;;4970484;28;20085;-65